Terminal Aerodrome Forecast
Issued by NWS Louisville, KY

Home | Current Version | Previous Version | Text Only | Print | Product List | Glossary On
Versions: 1 2 3 4 5 6 7 8 9 10 11 12 13
000
FTUS43 KLMK 201700
TAFLEX
TAF
KLEX 201720Z 2018/2118 22012G18KT P6SM SCT045
     FM202300 20008KT P6SM SCT250
     FM210700 21008KT P6SM SCT250 WS010/25030KT
     FM211400 27012G18KT P6SM BKN040=

USA.gov is the U.S. government's official web portal to all federal, state and local government web resources and services.